createdAt,value
2022-08-04T00:00:21.926Z,101254.06
2022-08-04T00:02:56.875Z,101245.72
2022-08-04T00:05:38.289Z,101251.28
2022-08-04T00:08:20.845Z,101250.03
2022-08-04T00:10:58.629Z,101246.47
2022-08-04T00:13:27.857Z,101250.97
2022-08-04T00:15:59.271Z,101239.28
2022-08-04T00:18:39.736Z,101244.25
2022-08-04T00:21:10.178Z,101247.34
2022-08-04T00:24:11.490Z,101238.41
2022-08-04T00:26:33.265Z,101236.75
2022-08-04T00:29:01.163Z,101235.97
2022-08-04T00:31:53.715Z,101238.59
2022-08-04T00:34:15.229Z,101236.56
2022-08-04T00:36:44.209Z,101222.00
2022-08-04T00:39:19.723Z,101216.28
2022-08-04T00:41:57.267Z,101228.44
2022-08-04T00:44:31.329Z,101219.47
2022-08-04T00:47:19.126Z,101216.91
2022-08-04T00:49:48.754Z,101216.91
2022-08-04T00:52:32.185Z,101219.06
2022-08-04T00:55:09.306Z,101213.50
2022-08-04T00:57:47.448Z,101207.94
2022-08-04T01:00:15.587Z,101204.53
2022-08-04T01:02:53.670Z,101207.94
2022-08-04T01:05:47.852Z,101200.69
2022-08-04T01:08:44.477Z,101195.53
2022-08-04T01:11:56.425Z,101190.19
2022-08-04T01:14:52.718Z,101188.56
2022-08-04T01:17:36.013Z,101187.63
2022-08-04T01:20:09.359Z,101179.53
2022-08-04T01:22:57.974Z,101175.28
2022-08-04T01:25:30.147Z,101176.09
2022-08-04T01:28:15.918Z,101174.19
2022-08-04T01:30:50.167Z,101176.09
2022-08-04T01:33:20.190Z,101149.88
2022-08-04T01:35:59.871Z,101176.75
2022-08-04T01:38:37.603Z,101135.59
2022-08-04T01:41:07.748Z,101171.44
2022-08-04T01:43:42.376Z,101174.19
2022-08-04T01:46:14.660Z,101171.66
2022-08-04T01:48:44.504Z,101148.63
2022-08-04T01:51:11.505Z,101177.22
2022-08-04T01:53:40.430Z,101134.97
2022-08-04T01:56:08.743Z,101171.66
2022-08-04T01:58:37.460Z,101173.34
2022-08-04T02:01:12.717Z,101166.09
2022-08-04T02:04:21.182Z,101174.44
2022-08-04T02:06:40.742Z,101170.78
2022-08-04T02:09:07.204Z,101178.06
2022-08-04T02:11:34.184Z,101177.22
2022-08-04T02:14:41.256Z,101172.72
2022-08-04T02:17:15.130Z,101169.09
2022-08-04T02:19:58.391Z,101173.78
2022-08-04T02:22:27.262Z,101157.34
2022-08-04T02:25:10.732Z,101164.41
2022-08-04T02:27:59.276Z,101158.44
2022-08-04T02:30:34.369Z,101168.09
2022-08-04T02:33:04.492Z,101165.34
2022-08-04T02:35:38.944Z,101163.63
2022-08-04T02:38:12.836Z,101159.59
2022-08-04T02:40:41.473Z,101157.25
2022-08-04T02:43:10.431Z,101146.22
2022-08-04T02:45:38.220Z,101161.59
2022-08-04T02:48:28.628Z,101157.34
2022-08-04T02:50:55.808Z,101161.63
2022-08-04T02:53:23.110Z,101158.66
2022-08-04T02:55:53.383Z,101147.13
2022-08-04T02:58:26.148Z,101150.09
2022-08-04T03:00:52.741Z,101164.44
2022-08-04T03:03:31.337Z,101147.34
2022-08-04T03:06:13.216Z,101159.97
2022-08-04T03:09:01.845Z,101164.50
2022-08-04T03:11:52.170Z,101177.94
2022-08-04T03:14:36.454Z,101159.13
2022-08-04T03:17:21.170Z,101159.59
2022-08-04T03:20:04.128Z,101151.91
2022-08-04T03:23:12.517Z,101154.47
2022-08-04T03:26:19.718Z,101148.28
2022-08-04T03:29:11.071Z,101152.34
2022-08-04T03:31:55.580Z,101145.94
2022-08-04T03:34:37.295Z,101156.41
2022-08-04T03:37:41.367Z,101155.78
2022-08-04T03:40:45.571Z,101130.63
2022-08-04T03:43:57.850Z,101168.38
2022-08-04T03:46:52.993Z,101168.19
2022-08-04T03:49:44.108Z,101167.53
2022-08-04T03:52:54.223Z,101172.25
2022-08-04T03:55:26.987Z,101168.59
2022-08-04T03:58:17.840Z,101167.53
2022-08-04T04:01:04.105Z,101157.28
2022-08-04T04:03:59.535Z,101145.16
2022-08-04T04:06:35.314Z,101165.59
2022-08-04T04:09:20.836Z,101165.59
2022-08-04T04:12:17.445Z,101164.97
2022-08-04T04:15:31.050Z,101160.94
2022-08-04T04:18:16.202Z,101172.88
2022-08-04T04:21:10.679Z,101170.28
2022-08-04T04:24:13.960Z,101167.31
2022-08-04T04:26:58.242Z,101173.50
2022-08-04T04:30:07.681Z,101164.25
2022-08-04T04:33:09.868Z,101172.34
2022-08-04T04:36:03.392Z,101163.38
2022-08-04T04:38:57.854Z,101167.66
2022-08-04T04:41:46.431Z,101167.84
2022-08-04T04:44:12.882Z,101178.72
2022-08-04T04:46:53.740Z,101162.91
2022-08-04T04:49:22.869Z,101169.03
2022-08-04T04:51:55.677Z,101167.50
2022-08-04T04:54:22.221Z,101177.69
2022-08-04T04:56:53.653Z,101176.34
2022-08-04T04:59:32.875Z,101166.88
2022-08-04T05:02:37.308Z,101173.66
2022-08-04T05:05:36.033Z,101175.25
2022-08-04T05:08:43.182Z,101175.84
2022-08-04T05:11:19.263Z,101183.91
2022-08-04T05:14:34.916Z,101171.00
2022-08-04T05:16:45.881Z,101172.09
2022-08-04T05:19:44.666Z,101156.81
2022-08-04T05:22:22.654Z,101170.38
2022-08-04T05:24:54.366Z,101169.81
2022-08-04T05:27:39.708Z,101163.16
2022-08-04T05:30:11.916Z,101171.00
2022-08-04T05:32:46.937Z,101177.06
2022-08-04T05:35:49.834Z,101179.44
2022-08-04T05:38:20.283Z,101165.13
2022-08-04T05:40:48.223Z,101167.97
2022-08-04T05:43:18.165Z,101172.63
2022-08-04T05:45:48.376Z,101172.94
2022-08-04T05:48:16.689Z,101161.63
2022-08-04T05:50:45.406Z,101158.84
2022-08-04T05:53:14.845Z,101142.91
2022-08-04T05:55:58.181Z,101160.59
2022-08-04T05:58:31.673Z,101157.72
2022-08-04T06:01:00.952Z,101155.97
2022-08-04T06:03:30.159Z,101143.25
2022-08-04T06:05:58.172Z,101170.28
2022-08-04T06:08:26.775Z,101165.94
2022-08-04T06:10:55.256Z,101161.44
2022-08-04T06:13:48.455Z,101170.19
2022-08-04T06:16:29.183Z,101169.72
2022-08-04T06:20:03.367Z,101171.31
2022-08-04T06:21:56.601Z,101171.44
2022-08-04T06:24:26.351Z,101151.78
2022-08-04T06:26:53.993Z,101164.31
2022-08-04T06:29:40.773Z,101173.56
2022-08-04T06:32:33.741Z,101162.56
2022-08-04T06:35:06.792Z,101164.91
2022-08-04T06:37:42.895Z,101178.03
2022-08-04T06:40:31.541Z,101176.59
2022-08-04T06:43:04.985Z,101179.16
2022-08-04T06:45:34.825Z,101186.88
2022-08-04T06:48:02.598Z,101193.84
2022-08-04T06:51:32.148Z,101195.31
2022-08-04T06:53:17.849Z,101189.50
2022-08-04T06:55:50.249Z,101186.34
2022-08-04T06:58:19.064Z,101196.00
2022-08-04T07:00:49.379Z,101189.94
2022-08-04T07:03:18.115Z,101189.97
2022-08-04T07:05:51.266Z,101145.09
2022-08-04T07:08:18.588Z,101194.13
2022-08-04T07:10:46.339Z,101187.22
2022-08-04T07:13:13.520Z,101190.84
2022-08-04T07:15:45.278Z,101187.88
2022-08-04T07:18:11.938Z,101203.50
2022-08-04T07:20:45.972Z,101195.97
2022-08-04T07:23:17.675Z,101198.75
2022-08-04T07:25:59.802Z,101191.56
2022-08-04T07:28:37.068Z,101193.97
2022-08-04T07:31:05.375Z,101198.25
2022-08-04T07:33:32.534Z,101192.00
2022-08-04T07:36:09.786Z,101197.06
2022-08-04T07:38:50.721Z,101193.41
2022-08-04T07:41:40.631Z,101194.72
2022-08-04T07:44:09.333Z,101204.03
2022-08-04T07:46:39.207Z,101204.28
2022-08-04T07:49:09.789Z,101206.25
2022-08-04T07:51:39.762Z,101214.56
2022-08-04T07:54:11.155Z,101205.63
2022-08-04T07:56:42.061Z,101207.13
2022-08-04T07:59:09.311Z,101207.59
2022-08-04T08:01:37.056Z,101164.28
2022-08-04T08:04:09.660Z,101209.91
2022-08-04T08:06:43.216Z,101209.75
2022-08-04T08:09:15.555Z,101212.09
2022-08-04T08:12:36.636Z,101219.25
2022-08-04T08:14:35.602Z,101226.75
2022-08-04T08:17:03.288Z,101228.66
2022-08-04T08:19:34.633Z,101230.25
2022-08-04T08:22:02.282Z,101222.69
2022-08-04T08:24:36.082Z,101227.09
2022-08-04T08:27:04.743Z,101247.63
2022-08-04T08:29:34.608Z,101225.84
2022-08-04T08:32:07.766Z,101231.91
2022-08-04T08:34:34.788Z,101239.03
2022-08-04T08:37:21.442Z,101239.59
2022-08-04T08:39:59.078Z,101231.97
2022-08-04T08:42:37.871Z,101242.41
2022-08-04T08:45:31.405Z,101253.31
2022-08-04T08:48:22.073Z,101234.72
2022-08-04T08:50:55.318Z,101234.13
2022-08-04T08:53:34.246Z,101246.72
2022-08-04T08:56:30.952Z,101245.00
2022-08-04T08:59:16.795Z,101256.53
2022-08-04T09:01:56.322Z,101255.31
2022-08-04T09:04:31.997Z,101256.38
2022-08-04T09:07:11.329Z,101263.69
2022-08-04T09:10:02.221Z,101257.63
2022-08-04T09:12:38.641Z,101257.38
2022-08-04T09:15:18.877Z,101256.06
2022-08-04T09:18:00.832Z,101261.06
2022-08-04T09:20:27.342Z,101262.06
2022-08-04T09:23:08.701Z,101264.75
2022-08-04T09:25:46.949Z,101269.28
2022-08-04T09:28:50.737Z,101281.53
2022-08-04T09:31:18.627Z,101264.78
2022-08-04T09:33:46.175Z,101282.41
2022-08-04T09:36:28.529Z,101276.22
2022-08-04T09:39:07.600Z,101294.56
2022-08-04T09:41:48.195Z,101295.16
2022-08-04T09:44:58.771Z,101294.91
2022-08-04T09:47:56.659Z,101298.84
2022-08-04T09:50:41.123Z,101303.94
2022-08-04T09:53:43.215Z,101310.94
2022-08-04T09:56:20.703Z,101323.25
2022-08-04T09:59:33.785Z,101329.81
2022-08-04T10:02:07.698Z,101347.34
2022-08-04T10:04:35.999Z,101346.88
2022-08-04T10:07:27.117Z,101338.22
2022-08-04T10:10:12.486Z,101341.50
2022-08-04T10:12:56.495Z,101369.94
2022-08-04T10:15:25.980Z,101371.50
2022-08-04T10:18:17.495Z,101356.44
2022-08-04T10:21:10.237Z,101353.47
2022-08-04T10:24:00.363Z,101358.97
2022-08-04T10:26:41.570Z,101376.59
2022-08-04T10:29:40.286Z,101387.94
2022-08-04T10:32:30.074Z,101407.91
2022-08-04T10:34:56.638Z,101407.94
2022-08-04T10:37:59.051Z,101394.56
2022-08-04T10:40:38.108Z,101398.34
2022-08-04T10:43:21.033Z,101408.34
2022-08-04T10:45:57.965Z,101405.94
2022-08-04T10:48:34.623Z,101388.53
2022-08-04T10:51:18.342Z,101350.31
2022-08-04T10:53:51.848Z,101348.53
2022-08-04T10:56:45.168Z,101344.03
2022-08-04T10:59:18.897Z,101331.50
2022-08-04T11:02:02.768Z,101348.41
2022-08-04T11:04:30.649Z,101352.63
2022-08-04T11:07:00.382Z,101375.16
2022-08-04T11:09:30.444Z,101324.69
2022-08-04T11:12:10.528Z,101374.97
2022-08-04T11:14:45.289Z,101366.47
2022-08-04T11:17:19.393Z,101352.47
2022-08-04T11:20:32.187Z,101342.34
2022-08-04T11:23:15.612Z,101344.94
2022-08-04T11:25:59.149Z,101348.16
2022-08-04T11:28:39.599Z,101332.81
2022-08-04T11:31:17.378Z,101327.97
2022-08-04T11:34:03.389Z,101325.81
2022-08-04T11:36:49.880Z,101337.47
2022-08-04T11:39:43.635Z,101334.44
2022-08-04T11:42:27.589Z,101323.03
2022-08-04T11:45:06.438Z,101334.31
2022-08-04T11:47:39.890Z,101330.72
2022-08-04T11:50:22.822Z,101326.47
2022-08-04T11:52:52.952Z,101309.84
2022-08-04T11:55:23.132Z,101351.25
2022-08-04T11:57:54.419Z,101361.66
2022-08-04T12:00:22.482Z,101349.53
2022-08-04T12:02:52.247Z,101345.91
2022-08-04T12:05:37.008Z,101348.72
2022-08-04T12:08:36.226Z,101341.50
2022-08-04T12:11:21.533Z,101349.59
2022-08-04T12:14:12.805Z,101356.06
2022-08-04T12:16:51.663Z,101352.16
2022-08-04T12:19:31.154Z,101358.50
2022-08-04T12:22:18.436Z,101354.00
2022-08-04T12:25:06.738Z,101347.13
2022-08-04T12:27:41.924Z,101352.66
2022-08-04T12:30:59.533Z,101357.34
2022-08-04T12:33:03.815Z,101366.25
2022-08-04T12:35:36.581Z,101374.72
2022-08-04T12:38:06.631Z,101384.16
2022-08-04T12:40:49.558Z,101387.13
2022-08-04T12:43:47.140Z,101381.88
2022-08-04T12:46:22.613Z,101386.72
2022-08-04T12:48:50.316Z,101379.81
2022-08-04T12:52:06.820Z,101388.59
2022-08-04T12:54:08.061Z,101395.25
2022-08-04T12:56:35.798Z,101385.19
2022-08-04T12:59:13.228Z,101378.09
2022-08-04T13:02:10.105Z,101369.53
2022-08-04T13:04:29.619Z,101372.47
2022-08-04T13:07:15.401Z,101369.66
2022-08-04T13:09:43.135Z,101374.06
2022-08-04T13:12:20.952Z,101381.91
2022-08-04T13:14:50.764Z,101385.59
2022-08-04T13:17:17.715Z,101370.31
2022-08-04T13:19:53.049Z,101387.19
2022-08-04T13:22:26.868Z,101385.25
2022-08-04T13:27:48.367Z,101375.69
2022-08-04T13:30:22.950Z,101365.69
2022-08-04T13:30:24.310Z,101380.09
2022-08-04T13:32:55.727Z,101371.28
2022-08-04T13:35:30.580Z,101359.75
2022-08-04T13:38:17.013Z,101361.56
2022-08-04T13:40:44.649Z,101377.53
2022-08-04T13:44:16.492Z,101366.22
2022-08-04T13:46:36.959Z,101369.47
2022-08-04T13:52:01.963Z,101363.56
2022-08-04T13:54:43.492Z,101359.66
2022-08-04T13:57:15.860Z,101353.41
2022-08-04T13:59:46.058Z,101346.09
2022-08-04T14:02:28.372Z,101357.34
2022-08-04T14:05:01.878Z,101352.88
2022-08-04T14:07:30.704Z,101352.88
2022-08-04T14:10:03.477Z,101346.09
2022-08-04T14:12:38.086Z,101347.50
2022-08-04T14:16:01.374Z,101351.16
2022-08-04T14:18:26.376Z,101336.41
2022-08-04T14:21:11.778Z,101350.75
2022-08-04T14:23:50.820Z,101347.53
2022-08-04T14:26:18.823Z,101349.72
2022-08-04T14:29:25.732Z,101332.03
2022-08-04T14:31:34.449Z,101325.63
2022-08-04T14:34:09.652Z,101346.63
2022-08-04T14:37:13.351Z,101335.53
2022-08-04T14:39:40.321Z,101339.47
2022-08-04T14:42:07.417Z,101333.09
2022-08-04T14:44:56.548Z,101348.22
2022-08-04T14:47:52.021Z,101339.56
2022-08-04T14:50:32.969Z,101352.44
2022-08-04T14:53:17.219Z,101346.13
2022-08-04T14:55:46.824Z,101351.94
2022-08-04T14:58:34.400Z,101357.28
2022-08-04T15:01:09.788Z,101338.66
2022-08-04T15:03:50.104Z,101352.00
2022-08-04T15:06:29.597Z,101351.81
2022-08-04T15:09:03.976Z,101366.22
2022-08-04T15:11:34.761Z,101361.13
2022-08-04T15:14:06.597Z,101360.91
2022-08-04T15:16:35.915Z,101362.63
2022-08-04T15:19:02.505Z,101369.06
2022-08-04T15:21:30.558Z,101357.84
2022-08-04T15:23:58.703Z,101347.13
2022-08-04T15:26:44.162Z,101313.22
2022-08-04T15:29:59.194Z,101337.84
2022-08-04T15:32:32.903Z,101350.16
2022-08-04T15:35:06.871Z,101347.53
2022-08-04T15:37:42.684Z,101342.59
2022-08-04T15:40:18.798Z,101342.41
2022-08-04T15:43:02.660Z,101357.88
2022-08-04T15:46:02.290Z,101343.81
2022-08-04T15:48:39.759Z,101349.72
2022-08-04T15:51:15.041Z,101336.03
2022-08-04T15:54:02.171Z,101345.41
2022-08-04T15:56:28.804Z,101346.38
2022-08-04T15:58:58.841Z,101324.81
2022-08-04T16:01:27.653Z,101342.69
2022-08-04T16:04:00.962Z,101339.44
2022-08-04T16:06:29.554Z,101340.44
2022-08-04T16:09:01.962Z,101338.78
2022-08-04T16:11:37.296Z,101340.88
2022-08-04T16:14:07.673Z,101336.00
2022-08-04T16:16:37.231Z,101339.56
2022-08-04T16:19:24.938Z,101337.78
2022-08-04T16:22:03.224Z,101353.78
2022-08-04T16:24:31.022Z,101350.53
2022-08-04T16:27:08.353Z,101347.97
2022-08-04T16:29:48.110Z,101351.69
2022-08-04T16:32:23.232Z,101340.19
2022-08-04T16:35:04.874Z,101318.25
2022-08-04T16:37:43.088Z,101325.06
2022-08-04T16:40:37.163Z,101338.13
2022-08-04T16:43:08.299Z,101337.72
2022-08-04T16:45:46.990Z,101333.47
2022-08-04T16:48:18.618Z,101334.00
2022-08-04T16:51:14.586Z,101338.88
2022-08-04T16:53:52.971Z,101340.53
2022-08-04T16:56:33.183Z,101332.44
2022-08-04T16:59:07.406Z,101341.63
2022-08-04T17:01:34.656Z,101341.03
2022-08-04T17:04:06.819Z,101336.13
2022-08-04T17:06:42.107Z,101329.31
2022-08-04T17:09:19.579Z,101342.16
2022-08-04T17:11:48.327Z,101340.88
2022-08-04T17:14:21.743Z,101340.78
2022-08-04T17:16:48.464Z,101339.13
2022-08-04T17:19:24.279Z,101317.81
2022-08-04T17:22:03.892Z,101323.44
2022-08-04T17:24:36.027Z,101338.81
2022-08-04T17:27:04.387Z,101350.44
2022-08-04T17:29:49.586Z,101360.13
2022-08-04T17:32:17.042Z,101355.03
2022-08-04T17:34:48.786Z,101362.75
2022-08-04T17:40:18.110Z,101356.91
2022-08-04T17:42:50.579Z,101298.25
2022-08-04T17:45:53.723Z,101366.06
2022-08-04T17:48:11.315Z,101370.53
2022-08-04T17:50:54.378Z,101379.69
2022-08-04T17:54:01.437Z,101386.28
2022-08-04T17:56:51.448Z,101375.94
2022-08-04T17:59:56.904Z,101384.31
2022-08-04T18:02:13.220Z,101397.94
2022-08-04T18:08:38.682Z,101394.38
2022-08-04T18:10:55.369Z,101389.38
2022-08-04T18:13:29.207Z,101383.53
2022-08-04T18:16:05.643Z,101376.31
2022-08-04T18:18:33.003Z,101402.28
2022-08-04T18:21:04.849Z,101396.91
2022-08-04T18:23:32.965Z,101403.56
2022-08-04T18:26:01.870Z,101409.03
2022-08-04T18:28:30.930Z,101389.22
2022-08-04T18:31:02.027Z,101420.53
2022-08-04T18:33:40.485Z,101430.69
2022-08-04T18:36:34.312Z,101427.75
2022-08-04T18:38:59.303Z,101433.34
2022-08-04T18:42:01.444Z,101435.53
2022-08-04T18:44:29.050Z,101438.56
2022-08-04T18:47:19.380Z,101443.38
2022-08-04T18:51:00.633Z,101447.47
2022-08-04T18:52:33.284Z,101448.59
2022-08-04T18:55:01.651Z,101459.41
2022-08-04T18:58:00.879Z,101457.91
2022-08-04T19:00:19.787Z,101437.13
2022-08-04T19:02:47.011Z,101465.59
2022-08-04T19:05:17.594Z,101477.91
2022-08-04T19:08:02.613Z,101474.81
2022-08-04T19:10:32.492Z,101475.09
2022-08-04T19:13:03.875Z,101476.00
2022-08-04T19:15:50.804Z,101476.06
2022-08-04T19:18:19.671Z,101489.63
2022-08-04T19:20:49.777Z,101478.09
2022-08-04T19:24:10.812Z,101488.16
2022-08-04T19:26:06.893Z,101500.63
2022-08-04T19:28:37.038Z,101504.72
2022-08-04T19:31:08.756Z,101510.31
2022-08-04T19:33:58.814Z,101502.84
2022-08-04T19:36:28.752Z,101507.16
2022-08-04T19:39:01.693Z,101526.22
2022-08-04T19:41:30.621Z,101521.09
2022-08-04T19:43:58.253Z,101515.28
2022-08-04T19:46:28.625Z,101507.41
2022-08-04T19:48:58.881Z,101519.91
2022-08-04T19:51:27.822Z,101521.63
2022-08-04T19:54:02.493Z,101532.16
2022-08-04T19:56:39.966Z,101531.53
2022-08-04T19:59:10.928Z,101544.81
2022-08-04T20:01:44.102Z,101542.47
2022-08-04T20:04:12.758Z,101535.88
2022-08-04T20:06:39.662Z,101534.19
2022-08-04T20:09:24.652Z,101545.56
2022-08-04T20:11:55.708Z,101557.38
2022-08-04T20:14:32.639Z,101547.28
2022-08-04T20:17:03.386Z,101545.56
2022-08-04T20:19:38.878Z,101553.50
2022-08-04T20:22:06.296Z,101554.78
2022-08-04T20:25:00.485Z,101559.13
2022-08-04T20:27:51.452Z,101552.91
2022-08-04T20:30:15.946Z,101571.94
2022-08-04T20:32:52.782Z,101581.63
2022-08-04T20:35:25.744Z,101576.47
2022-08-04T20:37:55.174Z,101569.38
2022-08-04T20:40:26.842Z,101559.34
2022-08-04T20:42:57.165Z,101568.97
2022-08-04T20:45:24.080Z,101560.88
2022-08-04T20:48:10.724Z,101567.53
2022-08-04T20:50:37.409Z,101545.53
2022-08-04T20:53:06.020Z,101585.97
2022-08-04T20:55:55.151Z,101587.69
2022-08-04T20:58:27.404Z,101588.34
2022-08-04T21:00:55.015Z,101591.97
2022-08-04T21:03:38.445Z,101583.63
2022-08-04T21:06:08.841Z,101586.22
2022-08-04T21:08:37.922Z,101584.28
2022-08-04T21:11:06.871Z,101582.16
2022-08-04T21:13:50.661Z,101587.50
2022-08-04T21:16:55.246Z,101582.78
2022-08-04T21:19:05.783Z,101566.13
2022-08-04T21:21:40.605Z,101564.88
2022-08-04T21:24:10.118Z,101557.78
2022-08-04T21:26:40.185Z,101518.41
2022-08-04T21:29:11.958Z,101521.63
2022-08-04T21:31:50.444Z,101494.91
2022-08-04T21:34:38.287Z,101512.03
2022-08-04T21:37:09.357Z,101540.69
2022-08-04T21:39:50.318Z,101533.19
2022-08-04T21:45:14.539Z,101540.84
2022-08-04T21:47:46.663Z,101530.56
2022-08-04T21:50:19.903Z,101539.97
2022-08-04T21:52:49.783Z,101538.84
2022-08-04T21:55:16.571Z,101543.56
2022-08-04T21:57:43.111Z,101552.31
2022-08-04T22:00:10.802Z,101538.63
2022-08-04T22:02:44.913Z,101516.38
2022-08-04T22:05:11.817Z,101513.16
2022-08-04T22:07:50.935Z,101514.59
2022-08-04T22:10:32.008Z,101545.81
2022-08-04T22:12:59.391Z,101552.25
2022-08-04T22:16:04.877Z,101559.06
2022-08-04T22:18:16.281Z,101562.06
2022-08-04T22:20:46.359Z,101548.78
2022-08-04T22:23:16.944Z,101559.03
2022-08-04T22:25:55.694Z,101532.91
2022-08-04T22:28:28.319Z,101542.78
2022-08-04T22:30:55.627Z,101540.44
2022-08-04T22:33:22.988Z,101525.28
2022-08-04T22:35:50.074Z,101517.13
2022-08-04T22:38:25.564Z,101485.38
2022-08-04T22:41:05.788Z,101515.03
2022-08-04T22:43:34.546Z,101531.50
2022-08-04T22:46:07.802Z,101532.16
2022-08-04T22:48:38.994Z,101508.84
2022-08-04T22:51:07.753Z,101486.81
2022-08-04T22:53:35.934Z,101480.63
2022-08-04T22:56:10.241Z,101476.94
2022-08-04T22:58:45.669Z,101481.84
2022-08-04T23:01:17.008Z,101504.69
2022-08-04T23:03:50.876Z,101498.09
2022-08-04T23:06:24.322Z,101498.09
2022-08-04T23:08:51.426Z,101495.31
2022-08-04T23:11:22.862Z,101483.16
2022-08-04T23:13:49.553Z,101498.91
2022-08-04T23:16:17.749Z,101504.88
2022-08-04T23:18:48.839Z,101503.53
2022-08-04T23:21:16.420Z,101535.22
2022-08-04T23:23:45.518Z,101542.03
2022-08-04T23:26:27.557Z,101534.13
2022-08-04T23:28:57.108Z,101525.41
2022-08-04T23:31:24.958Z,101529.03
2022-08-04T23:34:07.259Z,101530.50
2022-08-04T23:36:35.097Z,101536.25
2022-08-04T23:39:06.353Z,101524.03
2022-08-04T23:41:53.611Z,101522.53
2022-08-04T23:44:25.152Z,101510.78
2022-08-04T23:47:02.702Z,101518.44
2022-08-04T23:49:43.949Z,101514.16
2022-08-04T23:52:28.265Z,101515.44
2022-08-04T23:54:58.658Z,101507.97
2022-08-04T23:57:31.420Z,101518.81
